Time;durP1;ratioP1;P1;durP2;ratioP2;P2;SDS_P1;SDS_P2;PMS_P1;PMS_P2;Temp;Humidity;BMP_temperature;BMP_pressure;BME280_temperature;BME280_humidity;BME280_pressure;Samples;Min_cycle;Max_cycle;Signal;HPM_P1;HPM_P2
2023/09/25 00:00:45;;;;;;;5.50;3.88;;;11.20;99.90;;;;;;5040765;28;20032;-87
2023/09/25 00:03:11;;;;;;;4.57;3.20;;;11.20;99.90;;;;;;5052696;28;20032;-87
2023/09/25 00:05:37;;;;;;;4.38;3.88;;;11.30;99.90;;;;;;5036282;28;20046;-87
2023/09/25 00:08:03;;;;;;;4.28;3.55;;;11.30;99.90;;;;;;5036084;28;20064;-87
2023/09/25 00:10:31;;;;;;;4.38;3.90;;;11.40;99.90;;;;;;5050076;28;20119;-87
2023/09/25 00:12:57;;;;;;;3.90;3.60;;;11.40;99.90;;;;;;5052361;28;20145;-87
2023/09/25 00:15:23;;;;;;;5.47;4.35;;;11.40;99.90;;;;;;5036332;28;20455;-87
2023/09/25 00:17:49;;;;;;;4.63;4.22;;;11.50;99.90;;;;;;5051610;28;20499;-87
2023/09/25 00:20:17;;;;;;;6.18;4.35;;;11.60;99.90;;;;;;5057825;28;20048;-87
2023/09/25 00:22:43;;;;;;;5.90;4.28;;;11.60;99.90;;;;;;5035717;28;20055;-87
2023/09/25 00:25:09;;;;;;;4.18;3.78;;;11.60;99.90;;;;;;5036381;28;20482;-87
2023/09/25 00:27:35;;;;;;;6.82;4.03;;;11.60;99.90;;;;;;5036271;28;20466;-87
2023/09/25 00:30:03;;;;;;;4.47;4.05;;;11.60;99.90;;;;;;5051721;28;20040;-87
2023/09/25 00:32:29;;;;;;;4.97;4.47;;;11.50;99.90;;;;;;5052189;28;20436;-87
2023/09/25 00:34:55;;;;;;;5.30;4.63;;;11.50;99.90;;;;;;5036086;28;20131;-87
2023/09/25 00:37:21;;;;;;;5.82;3.90;;;11.60;99.90;;;;;;5052528;28;20036;-87
2023/09/25 00:39:47;;;;;;;5.68;4.20;;;11.50;99.90;;;;;;5052136;28;20124;-87
2023/09/25 00:42:13;;;;;;;4.50;4.10;;;11.60;99.90;;;;;;5051615;28;20556;-88
2023/09/25 00:44:38;;;;;;;5.38;4.72;;;11.50;99.90;;;;;;5052669;28;20037;-87
2023/09/25 00:47:05;;;;;;;4.80;4.30;;;11.50;99.90;;;;;;5052488;28;20040;-87
2023/09/25 00:49:32;;;;;;;5.13;4.57;;;11.50;99.90;;;;;;5035229;28;20040;-87
2023/09/25 00:51:59;;;;;;;4.93;4.28;;;11.50;99.90;;;;;;5052228;28;20457;-87
2023/09/25 00:54:25;;;;;;;5.07;4.15;;;11.50;99.90;;;;;;5035257;28;20467;-87
2023/09/25 00:56:51;;;;;;;4.95;4.25;;;11.50;99.90;;;;;;5052255;28;20051;-87
2023/09/25 00:59:17;;;;;;;4.90;4.35;;;11.50;99.90;;;;;;5051836;28;20045;-87
2023/09/25 01:01:43;;;;;;;6.82;4.35;;;11.50;99.90;;;;;;5051751;28;20032;-87
2023/09/25 01:04:09;;;;;;;5.00;4.45;;;11.50;99.90;;;;;;5036154;28;20035;-87
2023/09/25 01:06:35;;;;;;;4.60;4.20;;;11.50;99.90;;;;;;5051075;28;20037;-87
2023/09/25 01:09:00;;;;;;;5.22;4.72;;;11.40;99.90;;;;;;5053401;28;20560;-87
2023/09/25 01:11:28;;;;;;;5.65;5.10;;;11.50;99.90;;;;;;5035618;28;20491;-87
2023/09/25 01:13:53;;;;;;;5.85;4.15;;;11.50;99.90;;;;;;5052383;28;20044;-87
2023/09/25 01:16:22;;;;;;;5.60;4.72;;;11.40;99.90;;;;;;5051560;28;20462;-87
2023/09/25 01:18:47;;;;;;;6.95;4.88;;;11.40;99.90;;;;;;5038116;28;20041;-86
2023/09/25 01:21:13;;;;;;;5.00;4.43;;;11.40;99.90;;;;;;5055332;28;20032;-87
2023/09/25 01:23:39;;;;;;;4.63;4.22;;;11.40;99.90;;;;;;5056389;28;20113;-87
2023/09/25 01:26:05;;;;;;;5.13;4.60;;;11.40;99.90;;;;;;5039450;28;20115;-87
2023/09/25 01:28:30;;;;;;;5.25;4.20;;;11.30;99.90;;;;;;5044469;28;20049;-87
2023/09/25 01:30:58;;;;;;;5.60;4.53;;;11.40;99.90;;;;;;5049461;28;20109;-87
2023/09/25 01:33:25;;;;;;;5.07;4.63;;;11.30;99.90;;;;;;5039829;28;20098;-87
2023/09/25 01:35:51;;;;;;;4.35;4.03;;;11.40;99.90;;;;;;5039322;28;20085;-87
2023/09/25 01:38:17;;;;;;;4.50;4.10;;;11.30;99.90;;;;;;5036745;28;20119;-87
2023/09/25 01:40:42;;;;;;;6.28;4.47;;;11.40;99.90;;;;;;5053228;28;20551;-87
2023/09/25 01:43:08;;;;;;;6.30;4.28;;;11.30;99.90;;;;;;5055773;28;20044;-87
2023/09/25 01:45:34;;;;;;;5.57;4.63;;;11.30;99.90;;;;;;5047368;28;20047;-87
2023/09/25 01:47:59;;;;;;;5.13;4.07;;;11.30;99.90;;;;;;5042536;28;20529;-87
2023/09/25 01:50:27;;;;;;;5.93;4.43;;;11.30;99.90;;;;;;5055448;28;20072;-86
2023/09/25 01:53:00;;;;;;;6.18;4.72;;;11.20;99.90;;;;;;5055410;28;20166;-87
2023/09/25 01:55:27;;;;;;;;;;;11.20;99.90;;;;;;5039316;28;20050;-87
2023/09/25 01:57:52;;;;;;;4.57;4.10;;;11.20;99.90;;;;;;5059617;28;20017;-87
2023/09/25 02:00:18;;;;;;;6.85;4.97;;;11.20;99.90;;;;;;5038181;28;20320;-87
2023/09/25 02:02:45;;;;;;;5.40;4.13;;;11.20;99.90;;;;;;5049387;28;20036;-87
2023/09/25 02:05:11;;;;;;;5.63;4.10;;;11.10;99.90;;;;;;5053469;28;20079;-87
2023/09/25 02:07:36;;;;;;;5.00;4.15;;;11.10;99.90;;;;;;5037019;28;20064;-87
2023/09/25 02:10:02;;;;;;;5.43;4.68;;;11.00;99.90;;;;;;5038136;28;20086;-87
2023/09/25 02:12:28;;;;;;;5.00;4.43;;;11.00;99.90;;;;;;5041561;28;20045;-87
2023/09/25 02:14:57;;;;;;;5.85;4.18;;;11.00;99.90;;;;;;5054625;28;20039;-87
2023/09/25 02:17:23;;;;;;;6.00;4.45;;;11.00;99.90;;;;;;5054653;28;20028;-88
2023/09/25 02:19:50;;;;;;;5.32;3.70;;;11.00;99.90;;;;;;5054156;28;20118;-87
2023/09/25 02:22:16;;;;;;;7.53;5.30;;;10.90;99.90;;;;;;5054923;28;20043;-87
2023/09/25 02:24:42;;;;;;;6.75;5.22;;;10.90;99.90;;;;;;5038009;28;20128;-88
2023/09/25 02:27:07;;;;;;;7.35;4.60;;;10.90;99.90;;;;;;5037101;28;20036;-88
2023/09/25 02:29:33;;;;;;;4.50;4.10;;;11.00;99.90;;;;;;5054415;28;20032;-88
2023/09/25 02:31:58;;;;;;;5.22;4.45;;;10.90;99.90;;;;;;5054625;28;20037;-87
2023/09/25 02:34:24;;;;;;;5.20;4.43;;;10.90;99.90;;;;;;5054458;28;20071;-87
2023/09/25 02:36:50;;;;;;;5.20;4.70;;;10.90;99.90;;;;;;5037451;28;20032;-88
2023/09/25 02:39:16;;;;;;;4.47;4.07;;;10.90;99.90;;;;;;5052909;28;20132;-88
2023/09/25 02:41:41;;;;;;;6.90;4.65;;;10.80;99.90;;;;;;5036189;28;20044;-87
2023/09/25 02:44:07;;;;;;;5.75;4.55;;;10.80;99.90;;;;;;5054883;28;20039;-88
2023/09/25 02:46:33;;;;;;;5.65;5.13;;;10.80;99.90;;;;;;5054598;28;20037;-88
2023/09/25 02:48:59;;;;;;;4.82;4.40;;;10.80;99.90;;;;;;5054127;28;20414;-87
2023/09/25 02:51:24;;;;;;;6.68;4.60;;;10.80;99.90;;;;;;5053771;28;20045;-87
2023/09/25 02:53:53;;;;;;;6.07;4.97;;;10.80;99.90;;;;;;5054192;28;20079;-87
2023/09/25 02:56:18;;;;;;;4.85;4.32;;;10.90;99.90;;;;;;5043947;28;20064;-87
2023/09/25 02:58:44;;;;;;;5.15;4.60;;;10.90;99.90;;;;;;5054949;28;20117;-87
2023/09/25 03:01:10;;;;;;;6.57;5.20;;;10.90;99.90;;;;;;5113473;22;20051;-87
2023/09/25 03:03:36;;;;;;;5.40;4.70;;;10.90;99.90;;;;;;5080842;28;20406;-90
2023/09/25 03:06:01;;;;;;;6.95;4.80;;;10.90;99.90;;;;;;5072020;28;20086;-88
2023/09/25 03:08:27;;;;;;;5.30;4.63;;;10.90;99.90;;;;;;5076600;28;20043;-88
2023/09/25 03:10:52;;;;;;;5.20;4.80;;;10.80;99.90;;;;;;5083878;27;20044;-87
2023/09/25 03:13:18;;;;;;;5.80;5.05;;;10.70;99.90;;;;;;5084962;28;20030;-88
2023/09/25 03:15:44;;;;;;;4.90;4.40;;;10.80;99.90;;;;;;5108705;27;20557;-88
2023/09/25 03:18:11;;;;;;;5.03;4.60;;;10.80;99.90;;;;;;5109479;28;20038;-87
2023/09/25 03:20:38;;;;;;;5.30;4.45;;;10.80;99.90;;;;;;5093204;27;20027;-88
2023/09/25 03:23:04;;;;;;;4.90;4.38;;;10.70;99.90;;;;;;5091895;27;20042;-88
2023/09/25 03:25:34;;;;;;;5.18;4.50;;;10.70;99.90;;;;;;5084337;28;20039;-87
2023/09/25 03:28:00;;;;;;;4.85;4.38;;;10.70;99.90;;;;;;5085756;28;20520;-87
2023/09/25 03:30:26;;;;;;;6.45;4.30;;;10.70;99.90;;;;;;5092898;27;20045;-88
2023/09/25 03:32:54;;;;;;;4.60;4.20;;;10.60;99.90;;;;;;5089795;28;20442;-88
2023/09/25 03:35:23;;;;;;;5.55;4.50;;;10.60;99.90;;;;;;5083692;28;20153;-88
2023/09/25 03:37:49;;;;;;;4.95;4.45;;;10.60;99.90;;;;;;5108337;28;20071;-90
2023/09/25 03:40:15;;;;;;;4.82;4.20;;;10.60;99.90;;;;;;5088434;27;20116;-90
2023/09/25 03:42:41;;;;;;;5.07;4.68;;;10.60;99.90;;;;;;5088255;27;20036;-88
2023/09/25 03:45:07;;;;;;;5.43;4.72;;;10.60;99.90;;;;;;5089467;28;20118;-87
2023/09/25 03:47:37;;;;;;;8.25;5.15;;;10.60;99.90;;;;;;5087280;27;20123;-90
2023/09/25 03:50:03;;;;;;;5.80;5.07;;;10.60;99.90;;;;;;5086818;28;20065;-90
2023/09/25 03:52:29;;;;;;;10.45;5.45;;;10.60;99.90;;;;;;5081875;27;20088;-88
2023/09/25 03:55:15;;;;;;;5.47;4.97;;;10.70;99.90;;;;;;5094084;28;20442;-91
2023/09/25 03:57:41;;;;;;;5.90;4.80;;;10.70;99.90;;;;;;5093868;27;20043;-89
2023/09/25 04:00:07;;;;;;;6.65;4.70;;;10.70;99.90;;;;;;5086230;28;20093;-90
2023/09/25 04:02:33;;;;;;;6.82;5.55;;;10.70;99.90;;;;;;5095423;27;20497;-89
2023/09/25 04:04:58;;;;;;;7.05;5.07;;;10.70;99.90;;;;;;5087801;27;20039;-89
2023/09/25 04:07:24;;;;;;;5.18;4.78;;;10.80;99.90;;;;;;5096641;27;20039;-89
2023/09/25 04:09:49;;;;;;;6.40;5.47;;;10.80;99.90;;;;;;5087409;27;20103;-89
2023/09/25 04:12:16;;;;;;;6.10;5.55;;;10.80;99.90;;;;;;5086321;28;20043;-89
2023/09/25 04:14:41;;;;;;;5.55;5.07;;;10.70;99.90;;;;;;5090437;27;20489;-89
2023/09/25 04:17:10;;;;;;;6.72;4.85;;;10.80;99.90;;;;;;5105476;28;20065;-89
2023/09/25 04:19:36;;;;;;;6.25;5.65;;;10.70;99.90;;;;;;5091961;27;20046;-89
2023/09/25 04:22:06;;;;;;;6.03;5.07;;;10.80;99.90;;;;;;5087244;28;20088;-89
2023/09/25 04:24:36;;;;;;;6.38;5.10;;;10.80;99.90;;;;;;5091535;27;20046;-89
2023/09/25 04:27:02;;;;;;;5.72;5.10;;;10.70;99.90;;;;;;5091518;27;20433;-89
2023/09/25 04:29:28;;;;;;;6.22;4.88;;;10.70;99.90;;;;;;5092596;27;20043;-90
2023/09/25 04:31:54;;;;;;;5.60;4.60;;;10.80;99.90;;;;;;5099763;28;20051;-89
2023/09/25 04:34:19;;;;;;;6.65;4.78;;;10.70;99.90;;;;;;5089842;28;20039;-89
2023/09/25 04:36:48;;;;;;;8.02;5.05;;;10.70;99.90;;;;;;5098067;28;20517;-89
2023/09/25 04:39:16;;;;;;;5.05;4.55;;;10.70;99.90;;;;;;5088581;28;20123;-89
2023/09/25 04:41:43;;;;;;;6.50;4.97;;;10.70;99.90;;;;;;5091881;27;20032;-89
2023/09/25 04:44:09;;;;;;;5.80;5.05;;;10.70;99.90;;;;;;5094736;28;20488;-89
2023/09/25 04:46:35;;;;;;;5.70;5.18;;;10.80;99.90;;;;;;5095109;28;20126;-89
2023/09/25 04:49:06;;;;;;;6.35;5.28;;;10.80;99.90;;;;;;5086954;28;20555;-89
2023/09/25 04:51:33;;;;;;;6.53;5.18;;;10.80;99.90;;;;;;5102747;28;20134;-90
2023/09/25 04:54:00;;;;;;;6.28;5.45;;;10.70;99.90;;;;;;5079191;28;20035;-85
2023/09/25 04:56:27;;;;;;;5.35;4.32;;;10.70;99.90;;;;;;5092442;28;20038;-88
2023/09/25 04:58:53;;;;;;;4.90;4.28;;;10.80;99.90;;;;;;5091176;28;20513;-88
2023/09/25 05:01:22;;;;;;;5.57;5.05;;;10.70;99.90;;;;;;5093991;28;20035;-88
2023/09/25 05:03:52;;;;;;;5.30;4.80;;;10.70;99.90;;;;;;5090557;28;20485;-89
2023/09/25 05:06:27;;;;;;;5.38;4.68;;;10.80;99.90;;;;;;5087168;28;20027;-89
2023/09/25 05:08:52;;;;;;;5.93;4.90;;;10.70;99.90;;;;;;5102105;28;20521;-88
2023/09/25 05:11:20;;;;;;;4.82;4.40;;;10.80;99.90;;;;;;5096377;28;20042;-89
2023/09/25 05:13:46;;;;;;;5.00;4.60;;;10.80;99.90;;;;;;5086173;28;20039;-88
2023/09/25 05:16:11;;;;;;;6.53;4.53;;;10.70;99.90;;;;;;5102846;28;20685;-87
2023/09/25 05:18:37;;;;;;;5.55;4.70;;;10.70;99.90;;;;;;5104084;28;20050;-88
2023/09/25 05:21:02;;;;;;;5.45;4.30;;;10.70;99.90;;;;;;5087589;28;20039;-88
2023/09/25 05:23:28;;;;;;;4.75;4.28;;;10.70;99.90;;;;;;5079929;28;20114;-88
2023/09/25 05:25:58;;;;;;;4.55;4.07;;;10.70;99.90;;;;;;5083068;28;20042;-87
2023/09/25 05:28:24;;;;;;;5.20;4.55;;;10.80;99.90;;;;;;5103066;28;20043;-88
2023/09/25 05:30:53;;;;;;;5.75;4.60;;;10.80;99.90;;;;;;5087834;28;20462;-89
2023/09/25 05:33:20;;;;;;;5.07;4.53;;;10.80;99.90;;;;;;5080017;28;20032;-88
2023/09/25 05:35:52;;;;;;;5.00;4.50;;;10.80;99.90;;;;;;5105380;28;20045;-90
2023/09/25 05:38:21;;;;;;;5.63;4.70;;;10.80;99.90;;;;;;5089341;28;20036;-89
2023/09/25 05:40:51;;;;;;;5.20;4.50;;;10.80;99.90;;;;;;5087565;28;20054;-89
2023/09/25 05:43:17;;;;;;;5.13;4.38;;;10.80;99.90;;;;;;5103253;28;20091;-89
2023/09/25 05:49:25;;;;;;;5.60;4.20;;;10.80;99.90;;;;;;5117152;28;20171;-90
2023/09/25 05:51:53;;;;;;;4.50;4.07;;;10.90;99.90;;;;;;5098814;28;20057;-88
2023/09/25 05:54:20;;;;;;;4.85;4.00;;;10.80;99.90;;;;;;5081030;28;20039;-88
2023/09/25 05:56:46;;;;;;;6.28;4.10;;;10.90;99.90;;;;;;5079565;28;20096;-89
2023/09/25 05:59:11;;;;;;;4.93;4.43;;;10.90;99.90;;;;;;5105253;28;20090;-88
2023/09/25 06:01:37;;;;;;;6.40;4.40;;;10.90;99.90;;;;;;5086466;28;20085;-89
2023/09/25 06:04:03;;;;;;;5.22;4.68;;;10.90;99.90;;;;;;5086949;28;20031;-88
2023/09/25 06:06:28;;;;;;;5.63;3.90;;;11.00;99.90;;;;;;5091856;27;20129;-89
2023/09/25 06:08:54;;;;;;;5.30;3.65;;;11.10;99.90;;;;;;5093855;27;20039;-89
2023/09/25 06:11:20;;;;;;;7.20;4.25;;;11.00;99.90;;;;;;5096397;27;20111;-88
2023/09/25 06:13:45;;;;;;;5.43;4.50;;;11.10;99.90;;;;;;5088195;27;20068;-89
2023/09/25 06:16:12;;;;;;;4.53;3.80;;;11.10;99.90;;;;;;5095809;27;20555;-88
2023/09/25 06:18:38;;;;;;;6.88;3.85;;;11.20;99.90;;;;;;5080893;27;20039;-90
2023/09/25 06:21:04;;;;;;;7.22;3.97;;;11.20;99.90;;;;;;5092246;28;20383;-88
2023/09/25 06:23:30;;;;;;;6.90;3.90;;;11.30;99.90;;;;;;5091371;27;20455;-88
2023/09/25 06:25:55;;;;;;;5.07;3.30;;;11.40;99.90;;;;;;5089385;27;20035;-88
2023/09/25 06:28:24;;;;;;;6.35;3.92;;;11.40;99.90;;;;;;5095799;27;20038;-88
2023/09/25 06:30:49;;;;;;;3.97;3.65;;;11.50;99.90;;;;;;5087652;28;20038;-88
2023/09/25 06:33:15;;;;;;;4.32;3.58;;;11.60;99.90;;;;;;5084271;27;20466;-89
2023/09/25 06:35:42;;;;;;;4.95;3.67;;;11.70;99.90;;;;;;5089539;27;20088;-88
2023/09/25 06:38:08;;;;;;;4.07;3.67;;;11.80;99.90;;;;;;5104862;27;20452;-89
2023/09/25 06:40:34;;;;;;;8.73;4.25;;;11.90;99.90;;;;;;5084243;27;20122;-89
2023/09/25 06:42:59;;;;;;;4.90;4.05;;;12.00;99.90;;;;;;5090707;27;20031;-89
2023/09/25 06:45:25;;;;;;;3.88;3.53;;;12.10;99.90;;;;;;5095306;27;20499;-90
2023/09/25 06:47:51;;;;;;;7.00;4.10;;;12.30;99.90;;;;;;5094287;27;20404;-89
2023/09/25 06:50:17;;;;;;;3.45;3.13;;;12.50;99.90;;;;;;5094513;28;20077;-89
2023/09/25 06:52:42;;;;;;;6.05;3.67;;;12.60;99.90;;;;;;5094903;27;20084;-88
2023/09/25 06:55:09;;;;;;;5.00;3.50;;;12.70;99.90;;;;;;5087017;28;20495;-89
2023/09/25 06:57:50;;;;;;;4.47;3.22;;;12.80;99.90;;;;;;5096799;27;20035;-88
2023/09/25 07:00:18;;;;;;;3.92;3.20;;;12.90;99.90;;;;;;5080952;28;20096;-89
2023/09/25 07:02:44;;;;;;;3.47;3.10;;;13.00;99.90;;;;;;5091082;27;20027;-84
2023/09/25 07:05:10;;;;;;;5.07;3.20;;;13.10;99.90;;;;;;5093889;28;20099;-84
2023/09/25 07:07:37;;;;;;;4.63;3.63;;;13.20;99.90;;;;;;5111020;27;20060;-88
2023/09/25 07:10:06;;;;;;;4.32;3.20;;;13.30;99.90;;;;;;5092159;27;20204;-89
2023/09/25 07:12:35;;;;;;;4.25;3.47;;;13.50;99.90;;;;;;5106219;27;20168;-90
2023/09/25 07:15:02;;;;;;;3.60;3.10;;;13.60;99.90;;;;;;5092979;27;20677;-89
2023/09/25 07:17:29;;;;;;;4.32;3.38;;;13.70;99.90;;;;;;5090616;27;20046;-88
2023/09/25 07:19:55;;;;;;;4.25;3.40;;;13.80;99.90;;;;;;5093594;27;20057;-89
2023/09/25 07:22:22;;;;;;;6.35;3.22;;;13.90;99.90;;;;;;5109899;28;20034;-89
2023/09/25 07:24:49;;;;;;;6.82;3.13;;;14.10;99.90;;;;;;5086875;28;20413;-89
2023/09/25 07:27:15;;;;;;;3.65;3.30;;;14.20;99.90;;;;;;5087914;27;20034;-88
2023/09/25 07:29:48;;;;;;;4.80;3.20;;;14.30;99.90;;;;;;5106396;27;20035;-88
2023/09/25 07:32:15;;;;;;;4.25;3.20;;;14.40;99.90;;;;;;5093302;27;20084;-89
2023/09/25 07:34:45;;;;;;;5.53;3.42;;;14.60;99.90;;;;;;5106817;27;20058;-89
2023/09/25 07:37:12;;;;;;;4.10;3.25;;;14.60;99.90;;;;;;5102151;27;20522;-90
2023/09/25 07:39:44;;;;;;;3.35;2.80;;;14.80;99.90;;;;;;5088733;27;20078;-89
2023/09/25 07:42:10;;;;;;;4.30;3.20;;;14.80;99.90;;;;;;5089727;28;20035;-89
2023/09/25 07:44:36;;;;;;;3.97;2.97;;;14.90;99.90;;;;;;5094127;27;20035;-89
2023/09/25 07:47:06;;;;;;;4.63;2.88;;;15.10;99.90;;;;;;5092413;27;20038;-89
2023/09/25 07:49:40;;;;;;;4.78;3.00;;;15.20;99.90;;;;;;5090064;27;20038;-91
2023/09/25 07:52:19;;;;;;;3.95;3.03;;;15.40;99.90;;;;;;5088029;27;20035;-90
2023/09/25 07:54:48;;;;;;;3.92;3.17;;;15.50;99.90;;;;;;5095118;27;20092;-91
2023/09/25 07:57:23;;;;;;;4.93;3.08;;;15.70;99.90;;;;;;5091111;27;20035;-89
2023/09/25 07:59:49;;;;;;;7.05;2.75;;;15.80;99.90;;;;;;5090501;28;20143;-89
2023/09/25 08:02:20;;;;;;;4.32;3.70;;;16.00;99.90;;;;;;5084576;28;20045;-89
2023/09/25 08:04:48;;;;;;;4.28;3.05;;;16.10;99.90;;;;;;5092674;27;20039;-90
2023/09/25 08:07:14;;;;;;;4.68;3.10;;;16.30;99.90;;;;;;5096429;27;20114;-90
2023/09/25 08:09:39;;;;;;;4.68;2.58;;;16.40;99.90;;;;;;5083888;27;20122;-89
2023/09/25 08:12:05;;;;;;;4.97;2.60;;;16.40;99.90;;;;;;5090037;27;20035;-90
2023/09/25 08:14:32;;;;;;;4.30;2.88;;;16.60;99.90;;;;;;5085659;28;20402;-89
2023/09/25 08:16:58;;;;;;;3.42;2.67;;;16.80;99.90;;;;;;5092953;27;20031;-89
2023/09/25 08:19:24;;;;;;;3.70;2.70;;;17.10;99.90;;;;;;5123125;27;20071;-89
2023/09/25 08:21:51;;;;;;;4.20;2.85;;;17.30;99.90;;;;;;5115735;27;20043;-89
2023/09/25 08:24:17;;;;;;;3.63;2.72;;;17.50;99.90;;;;;;5117612;28;20100;-88
2023/09/25 08:26:46;;;;;;;4.32;3.17;;;17.80;99.90;;;;;;5092574;27;20090;-88
2023/09/25 08:29:14;;;;;;;4.13;2.60;;;17.90;99.90;;;;;;5093834;28;20034;-90
2023/09/25 08:31:41;;;;;;;4.60;2.97;;;18.10;99.90;;;;;;5112475;27;20042;-89
2023/09/25 08:34:07;;;;;;;2.95;2.47;;;18.30;99.90;;;;;;5089881;27;20035;-89
2023/09/25 08:36:33;;;;;;;3.83;2.47;;;18.40;99.90;;;;;;5106208;28;20096;-90
2023/09/25 08:38:58;;;;;;;3.05;2.38;;;18.70;99.90;;;;;;5083966;28;20394;-89
2023/09/25 08:41:26;;;;;;;3.47;2.20;;;18.80;99.90;;;;;;5095009;28;20051;-90
2023/09/25 08:43:52;;;;;;;3.88;2.40;;;18.80;99.90;;;;;;5105942;28;20042;-89
2023/09/25 08:46:19;;;;;;;5.15;2.60;;;18.70;99.90;;;;;;5080358;28;20367;-89
2023/09/25 08:48:45;;;;;;;4.68;2.78;;;18.50;99.90;;;;;;5101869;28;20046;-90
2023/09/25 08:51:11;;;;;;;5.13;2.67;;;18.30;99.90;;;;;;5106586;28;20044;-89
2023/09/25 08:53:37;;;;;;;3.60;2.30;;;18.20;99.90;;;;;;5103588;28;20073;-89
2023/09/25 08:56:04;;;;;;;3.58;2.95;;;18.10;99.90;;;;;;5095099;28;20035;-90
2023/09/25 08:58:31;;;;;;;6.22;2.88;;;18.10;99.90;;;;;;5094461;28;20050;-90
2023/09/25 09:00:58;;;;;;;4.78;2.85;;;18.30;99.90;;;;;;5122866;22;20602;-87
2023/09/25 09:03:27;;;;;;;4.47;2.83;;;18.40;99.90;;;;;;5104721;28;20063;-89
2023/09/25 09:05:53;;;;;;;4.45;2.80;;;18.70;99.90;;;;;;5109567;28;20053;-90
2023/09/25 09:08:22;;;;;;;4.15;2.60;;;19.10;99.90;;;;;;5090835;28;20065;-89
2023/09/25 09:10:47;;;;;;;5.32;2.63;;;19.40;99.90;;;;;;5093541;28;20035;-86
2023/09/25 09:13:14;;;;;;;3.22;2.28;;;19.60;99.90;;;;;;5093234;28;20054;-89
2023/09/25 09:15:40;;;;;;;3.20;2.50;;;19.80;99.90;;;;;;5111068;28;20186;-90
2023/09/25 09:18:21;;;;;;;4.05;2.10;;;20.30;99.90;;;;;;5101705;28;20039;-90
2023/09/25 09:20:47;;;;;;;3.55;2.13;;;20.70;99.90;;;;;;5090220;28;20050;-89
2023/09/25 09:23:14;;;;;;;5.90;2.30;;;21.00;99.90;;;;;;5104628;28;20039;-89
2023/09/25 09:25:43;;;;;;;6.18;1.90;;;21.10;99.90;;;;;;5103790;28;20037;-91
2023/09/25 09:28:09;;;;;;;2.67;2.15;;;21.20;99.90;;;;;;5105926;28;20042;-89
2023/09/25 09:30:39;;;;;;;2.33;2.08;;;21.10;99.90;;;;;;5113024;28;20035;-89
2023/09/25 09:33:08;;;;;;;3.35;2.28;;;20.90;99.90;;;;;;5096312;28;20081;-89
2023/09/25 09:35:34;;;;;;;2.95;2.13;;;20.50;99.90;;;;;;5099679;28;20390;-89
2023/09/25 09:38:02;;;;;;;3.50;2.28;;;20.20;99.90;;;;;;5095811;27;20035;-90
2023/09/25 09:40:28;;;;;;;3.22;2.30;;;19.90;99.90;;;;;;5095987;28;20040;-89
2023/09/25 09:42:54;;;;;;;2.67;2.30;;;19.80;99.90;;;;;;5086604;27;20557;-89
2023/09/25 09:45:21;;;;;;;2.25;2.05;;;19.70;99.90;;;;;;5105085;28;20486;-89
2023/09/25 09:47:48;;;;;;;4.00;2.20;;;19.70;99.90;;;;;;5093334;27;20031;-90
2023/09/25 09:50:21;;;;;;;5.22;2.20;;;19.90;99.90;;;;;;5105961;27;20034;-89
2023/09/25 09:52:47;;;;;;;2.97;2.00;;;20.20;99.90;;;;;;5089360;27;20031;-89
2023/09/25 09:55:14;;;;;;;2.92;2.20;;;20.30;99.90;;;;;;5099674;27;20043;-89
2023/09/25 09:57:40;;;;;;;2.58;2.30;;;20.30;99.90;;;;;;5091939;27;20113;-90
2023/09/25 10:00:07;;;;;;;2.63;1.80;;;20.40;99.90;;;;;;5087851;27;20118;-89
2023/09/25 10:02:34;;;;;;;4.38;2.10;;;20.70;99.90;;;;;;5112717;27;20167;-90
2023/09/25 10:05:00;;;;;;;5.28;3.05;;;20.80;99.90;;;;;;5094504;27;20027;-89
2023/09/25 10:07:26;;;;;;;2.47;2.03;;;20.80;99.90;;;;;;5097847;27;20542;-90
2023/09/25 10:10:05;;;;;;;3.50;2.03;;;21.00;99.90;;;;;;5088945;27;20118;-89
2023/09/25 10:12:49;;;;;;;2.47;2.03;;;20.90;99.80;;;;;;5107598;27;20125;-89
2023/09/25 10:15:22;;;;;;;3.90;2.38;;;21.10;99.90;;;;;;5100075;28;20118;-89
2023/09/25 10:17:48;;;;;;;3.95;2.28;;;21.30;99.90;;;;;;5088974;27;20043;-82
2023/09/25 10:20:33;;;;;;;3.92;2.08;;;21.40;99.90;;;;;;5108535;28;20063;-91
2023/09/25 10:23:21;;;;;;;3.33;2.40;;;21.50;99.40;;;;;;5089789;27;20073;-87
2023/09/25 10:25:53;;;;;;;3.95;2.05;;;21.90;98.70;;;;;;5114202;27;20036;-85
2023/09/25 10:28:23;;;;;;;2.85;2.08;;;22.20;99.90;;;;;;5093574;27;20038;-85
2023/09/25 10:30:50;;;;;;;2.50;1.90;;;22.60;99.10;;;;;;5088994;27;20039;-86
2023/09/25 10:33:17;;;;;;;3.55;2.08;;;22.90;99.00;;;;;;5098408;27;20039;-90
2023/09/25 10:35:47;;;;;;;4.38;2.05;;;23.10;97.70;;;;;;5094498;27;20525;-91
2023/09/25 10:38:15;;;;;;;2.78;2.13;;;23.00;96.50;;;;;;5091571;28;20545;-90
2023/09/25 10:40:45;;;;;;;3.20;2.00;;;22.90;95.90;;;;;;5107346;27;20060;-90
2023/09/25 10:43:12;;;;;;;3.60;2.05;;;23.10;95.00;;;;;;5110869;27;20396;-89
2023/09/25 10:45:38;;;;;;;4.35;2.25;;;23.30;95.40;;;;;;5092202;27;20035;-90
2023/09/25 10:48:04;;;;;;;3.92;2.00;;;23.50;94.10;;;;;;5099015;27;20035;-90
2023/09/25 10:50:38;;;;;;;3.15;1.92;;;23.50;93.40;;;;;;5091206;27;20039;-91
2023/09/25 10:53:13;;;;;;;2.50;2.03;;;23.70;92.80;;;;;;5103492;27;20549;-90
2023/09/25 10:55:42;;;;;;;3.35;1.90;;;23.60;90.80;;;;;;5103050;27;20045;-90
2023/09/25 10:58:13;;;;;;;2.40;1.92;;;23.80;91.50;;;;;;5109745;28;20038;-90
2023/09/25 11:00:41;;;;;;;4.40;2.10;;;23.70;90.70;;;;;;5111133;27;20046;-91
2023/09/25 11:03:07;;;;;;;2.25;1.90;;;23.60;90.20;;;;;;5094258;27;20057;-90
2023/09/25 11:05:35;;;;;;;2.50;2.10;;;23.60;90.30;;;;;;5088259;27;20043;-91
2023/09/25 11:08:01;;;;;;;3.15;2.17;;;23.50;88.50;;;;;;5086994;28;20055;-89
2023/09/25 11:10:30;;;;;;;3.20;1.75;;;23.30;88.70;;;;;;5111254;27;20043;-90
2023/09/25 11:12:57;;;;;;;3.53;2.20;;;23.40;88.70;;;;;;5107917;27;20031;-90
2023/09/25 11:15:25;;;;;;;2.10;1.70;;;23.40;89.60;;;;;;5088234;28;20046;-90
2023/09/25 11:17:51;;;;;;;2.63;1.70;;;23.50;89.00;;;;;;5100517;27;20239;-90
2023/09/25 11:20:22;;;;;;;3.50;2.30;;;23.40;87.70;;;;;;5097612;27;20035;-90
2023/09/25 11:23:03;;;;;;;2.47;1.85;;;23.20;86.70;;;;;;5111179;27;20412;-90
2023/09/25 11:25:29;;;;;;;3.75;2.10;;;22.90;86.90;;;;;;5087320;27;20039;-90
2023/09/25 11:27:56;;;;;;;3.10;2.28;;;22.80;87.50;;;;;;5106663;27;20040;-90
2023/09/25 11:30:27;;;;;;;3.05;2.20;;;22.70;89.70;;;;;;5103945;28;20063;-90
2023/09/25 11:33:00;;;;;;;2.17;1.98;;;22.70;89.70;;;;;;5091562;27;20035;-90
2023/09/25 11:35:27;;;;;;;5.20;2.15;;;22.70;89.80;;;;;;5080028;27;20047;-90
2023/09/25 11:38:08;;;;;;;4.22;2.00;;;22.80;90.00;;;;;;5088146;27;20047;-90
2023/09/25 11:40:34;;;;;;;3.85;2.15;;;23.00;90.10;;;;;;5090037;27;20046;-90
2023/09/25 11:43:00;;;;;;;3.75;2.10;;;23.10;90.10;;;;;;5104911;28;20032;-90
2023/09/25 11:45:26;;;;;;;4.45;1.90;;;23.30;90.30;;;;;;5090445;27;20056;-90
2023/09/25 11:47:52;;;;;;;3.17;2.10;;;23.60;90.00;;;;;;5089448;27;20036;-90
2023/09/25 11:50:18;;;;;;;2.80;2.13;;;23.80;89.30;;;;;;5112477;27;20706;-91
2023/09/25 11:52:46;;;;;;;2.55;2.20;;;24.10;88.30;;;;;;5107873;28;20044;-91
2023/09/25 11:55:14;;;;;;;2.10;1.85;;;24.20;84.90;;;;;;5084980;28;20047;-91
2023/09/25 11:57:44;;;;;;;4.35;2.05;;;24.40;83.90;;;;;;5093925;27;20035;-90
2023/09/25 12:00:11;;;;;;;3.05;2.08;;;24.50;83.80;;;;;;5097384;27;20050;-90
2023/09/25 12:02:37;;;;;;;3.38;1.92;;;25.10;83.90;;;;;;5090418;27;20031;-91
2023/09/25 12:05:04;;;;;;;3.17;1.92;;;25.40;79.30;;;;;;5096612;28;20038;-90
2023/09/25 12:07:36;;;;;;;1.90;1.80;;;25.50;78.80;;;;;;5110682;27;20035;-91
2023/09/25 12:10:04;;;;;;;3.30;2.28;;;25.80;78.20;;;;;;5110817;28;20092;-90
2023/09/25 12:12:29;;;;;;;4.13;2.28;;;25.80;77.00;;;;;;5085850;27;20046;-90
2023/09/25 12:14:58;;;;;;;3.65;2.50;;;25.90;76.10;;;;;;5088606;27;20039;-91
2023/09/25 12:17:25;;;;;;;4.35;2.28;;;25.90;75.20;;;;;;5105257;27;20054;-90
2023/09/25 12:19:52;;;;;;;4.30;2.10;;;25.50;73.70;;;;;;5096575;27;20046;-90
2023/09/25 12:22:17;;;;;;;5.60;2.10;;;25.50;73.80;;;;;;5091320;27;20577;-90
2023/09/25 12:24:44;;;;;;;3.47;1.60;;;25.60;73.70;;;;;;5095927;27;20035;-90
2023/09/25 12:27:10;;;;;;;2.50;1.98;;;25.60;72.90;;;;;;5086713;28;20039;-90
2023/09/25 12:29:36;;;;;;;4.47;2.30;;;25.30;72.10;;;;;;5108606;27;20484;-90
2023/09/25 12:32:02;;;;;;;3.55;2.33;;;25.10;72.10;;;;;;5089466;27;20060;-91
2023/09/25 12:34:28;;;;;;;3.08;2.30;;;25.00;72.10;;;;;;5090923;27;20046;-90
2023/09/25 12:36:54;;;;;;;4.53;2.00;;;24.80;72.70;;;;;;5085504;27;20042;-90
2023/09/25 12:39:20;;;;;;;2.78;2.00;;;25.00;75.20;;;;;;5089462;28;20040;-91
2023/09/25 12:41:47;;;;;;;3.45;2.15;;;25.50;74.30;;;;;;5093043;27;20121;-91
2023/09/25 12:44:12;;;;;;;2.28;1.90;;;26.30;74.40;;;;;;5097188;28;20042;-90
2023/09/25 12:46:38;;;;;;;3.30;2.33;;;27.20;71.70;;;;;;5087427;28;20079;-90
2023/09/25 12:49:04;;;;;;;4.57;3.05;;;28.00;68.60;;;;;;5107907;28;20040;-91
2023/09/25 12:51:30;;;;;;;3.20;2.05;;;28.50;66.10;;;;;;5097920;28;20110;-91